Time;durP1;ratioP1;P1;durP2;ratioP2;P2;SDS_P1;SDS_P2;PMS_P1;PMS_P2;Temp;Humidity;BMP_temperature;BMP_pressure;BME280_temperature;BME280_humidity;BME280_pressure;Samples;Min_cycle;Max_cycle;Signal;HPM_P1;HPM_P2
2022/01/17 00:01:49;;;;;;;11.57;6.67;;;4.60;99.90;;;;;;5068753;28;20201;-68
2022/01/17 00:04:15;;;;;;;13.33;7.07;;;4.70;99.90;;;;;;5062009;28;20228;-67
2022/01/17 00:06:43;;;;;;;13.30;7.70;;;4.70;99.90;;;;;;5064026;28;20201;-67
2022/01/17 00:09:12;;;;;;;15.07;7.43;;;4.60;99.90;;;;;;5067621;28;20213;-67
2022/01/17 00:11:45;;;;;;;14.80;7.37;;;4.60;99.90;;;;;;5073243;28;20226;-67
2022/01/17 00:14:17;;;;;;;12.43;7.00;;;4.60;99.90;;;;;;5059090;28;20215;-67
2022/01/17 00:16:51;;;;;;;14.90;7.53;;;4.60;99.90;;;;;;5065999;28;20203;-67
2022/01/17 00:21:51;;;;;;;12.40;7.30;;;4.50;99.90;;;;;;5064374;28;20196;-67
2022/01/17 00:24:19;;;;;;;14.50;7.47;;;4.50;99.90;;;;;;5062711;28;20221;-67
2022/01/17 00:26:48;;;;;;;14.67;7.33;;;4.50;99.90;;;;;;5068866;28;20235;-68
2022/01/17 00:29:15;;;;;;;14.37;7.17;;;4.60;99.90;;;;;;5072206;28;20198;-67
2022/01/17 00:31:42;;;;;;;14.40;7.83;;;4.50;99.90;;;;;;5066398;28;20196;-67
2022/01/17 00:34:08;;;;;;;12.27;7.00;;;4.40;99.90;;;;;;5061786;28;20227;-67
2022/01/17 00:36:35;;;;;;;14.30;7.47;;;4.50;99.90;;;;;;5065351;28;20556;-67
2022/01/17 00:39:02;;;;;;;18.33;7.47;;;4.50;99.90;;;;;;5065822;28;20193;-67
2022/01/17 00:41:29;;;;;;;15.50;7.80;;;4.60;99.90;;;;;;5067420;28;20547;-67
2022/01/17 00:43:56;;;;;;;15.33;7.70;;;4.60;99.90;;;;;;5064934;28;20227;-67
2022/01/17 00:46:23;;;;;;;14.47;7.73;;;4.50;99.90;;;;;;5060234;28;20285;-67
2022/01/17 00:48:51;;;;;;;16.23;7.63;;;4.40;99.90;;;;;;5062163;28;20206;-71
2022/01/17 00:51:19;;;;;;;14.77;7.60;;;4.40;99.90;;;;;;5066337;28;20195;-70
2022/01/17 00:53:46;;;;;;;15.53;8.33;;;4.50;99.90;;;;;;5062602;28;20221;-70
2022/01/17 00:56:14;;;;;;;14.13;7.77;;;4.60;99.90;;;;;;5068004;28;20255;-69
2022/01/17 00:58:40;;;;;;;12.17;6.70;;;4.50;99.90;;;;;;5071835;28;20500;-69
2022/01/17 01:01:07;;;;;;;16.87;7.67;;;4.40;99.90;;;;;;5065655;28;20206;-70
2022/01/17 01:03:34;;;;;;;14.10;7.73;;;4.40;99.90;;;;;;5070579;28;20216;-71
2022/01/17 01:06:01;;;;;;;14.70;7.27;;;4.40;99.90;;;;;;5064070;28;20565;-68
2022/01/17 01:08:28;;;;;;;13.93;7.37;;;4.40;99.90;;;;;;5070485;28;20194;-67
2022/01/17 01:10:55;;;;;;;13.60;7.63;;;4.40;99.90;;;;;;5063758;28;20198;-67
2022/01/17 01:13:23;;;;;;;15.83;7.33;;;4.40;99.90;;;;;;5064293;28;20220;-67
2022/01/17 01:29:21;;;;;;;14.63;7.67;;;3.90;99.90;;;;;;5065906;28;20204;-67
2022/01/17 01:31:56;;;;;;;13.00;7.63;;;3.80;99.90;;;;;;5063690;28;20206;-66
2022/01/17 01:34:32;;;;;;;14.50;7.43;;;3.90;99.90;;;;;;5071698;28;20691;-68
2022/01/17 01:37:02;;;;;;;14.03;7.17;;;4.00;99.90;;;;;;5062556;28;20194;-68
2022/01/17 01:39:29;;;;;;;13.43;6.97;;;4.00;99.90;;;;;;5071863;28;20193;-68
2022/01/17 01:41:57;;;;;;;13.80;7.47;;;4.00;99.90;;;;;;5068632;28;20672;-69
2022/01/17 01:44:25;;;;;;;14.70;7.13;;;4.10;99.90;;;;;;5063281;28;20220;-68
2022/01/17 01:46:54;;;;;;;13.23;6.80;;;4.10;99.90;;;;;;5064272;28;20198;-68
2022/01/17 01:49:22;;;;;;;14.77;7.50;;;4.20;99.90;;;;;;5068518;28;20196;-66
2022/01/17 01:51:49;;;;;;;13.10;7.23;;;4.20;99.90;;;;;;5058400;28;20218;-66
2022/01/17 01:54:16;;;;;;;12.87;7.07;;;4.30;99.90;;;;;;5057535;28;20223;-66
2022/01/17 01:56:46;;;;;;;15.87;7.77;;;4.40;99.90;;;;;;5061966;28;20251;-66
2022/01/17 01:59:14;;;;;;;13.50;7.33;;;4.60;99.90;;;;;;5065890;28;20199;-66
2022/01/17 02:01:41;;;;;;;12.53;6.67;;;4.50;99.90;;;;;;5072264;28;20190;-69
2022/01/17 02:04:08;;;;;;;14.67;7.13;;;4.50;99.90;;;;;;5060079;28;20700;-69
2022/01/17 02:06:35;;;;;;;11.87;6.83;;;4.50;99.90;;;;;;5064998;28;20203;-70
2022/01/17 02:09:05;;;;;;;12.70;6.70;;;4.50;99.90;;;;;;5059366;28;20228;-69
2022/01/17 02:11:33;;;;;;;12.80;6.87;;;4.50;99.90;;;;;;5068199;28;20563;-69
2022/01/17 02:14:00;;;;;;;12.70;6.70;;;4.40;99.90;;;;;;5058371;28;20220;-70
2022/01/17 02:16:27;;;;;;;12.80;6.40;;;4.40;99.90;;;;;;5067129;28;20228;-69
2022/01/17 02:18:54;;;;;;;13.93;6.33;;;4.40;99.90;;;;;;5063306;28;20196;-70
2022/01/17 02:21:46;;;;;;;11.13;6.07;;;4.40;99.90;;;;;;5069907;28;20195;-69
2022/01/17 02:24:16;;;;;;;15.07;7.20;;;4.20;99.90;;;;;;5072429;28;20226;-67
2022/01/17 02:26:44;;;;;;;14.17;7.03;;;4.10;99.90;;;;;;5053850;28;20221;-67
2022/01/17 02:29:11;;;;;;;15.07;7.43;;;4.00;99.90;;;;;;5065577;28;20194;-67
2022/01/17 02:31:38;;;;;;;12.70;6.70;;;3.90;99.90;;;;;;5062156;28;20196;-67
2022/01/17 02:34:05;;;;;;;12.83;6.70;;;3.90;99.90;;;;;;5069562;28;20217;-66
2022/01/17 02:36:32;;;;;;;13.17;6.20;;;3.80;99.90;;;;;;5069777;28;20207;-67
2022/01/17 02:38:59;;;;;;;13.57;6.60;;;3.70;99.90;;;;;;5061460;28;20199;-67
2022/01/17 02:41:30;;;;;;;14.17;7.23;;;3.60;99.90;;;;;;5065818;28;20193;-66
2022/01/17 02:43:57;;;;;;;11.50;6.30;;;3.60;99.90;;;;;;5066183;28;20222;-67
2022/01/17 02:46:26;;;;;;;13.77;6.90;;;3.50;99.90;;;;;;5060555;28;20202;-67
2022/01/17 02:48:56;;;;;;;12.77;7.23;;;3.60;99.90;;;;;;5065772;28;20198;-67
2022/01/17 02:51:23;;;;;;;14.13;6.97;;;3.70;99.90;;;;;;5063028;28;20209;-67
2022/01/17 02:53:51;;;;;;;12.83;6.83;;;3.80;99.90;;;;;;5057456;28;20310;-70
2022/01/17 02:56:18;;;;;;;13.23;7.27;;;3.90;99.90;;;;;;5055437;28;20220;-69
2022/01/17 02:58:45;;;;;;;13.27;6.97;;;3.90;99.90;;;;;;5064705;28;20202;-69
2022/01/17 03:01:20;;;;;;;12.83;7.07;;;4.00;99.90;;;;;;5071288;28;20194;-69
2022/01/17 03:03:47;;;;;;;13.53;7.67;;;4.10;99.90;;;;;;5066033;28;20220;-70
2022/01/17 03:06:16;;;;;;;14.37;7.40;;;4.10;99.90;;;;;;5067036;28;20198;-69
2022/01/17 03:08:43;;;;;;;14.07;7.23;;;4.10;99.90;;;;;;5066235;28;20191;-69
2022/01/17 03:11:16;;;;;;;13.17;6.67;;;4.20;99.90;;;;;;5074535;28;20200;-69
2022/01/17 03:13:44;;;;;;;13.70;6.53;;;4.20;99.90;;;;;;5060606;28;20231;-70
2022/01/17 03:16:14;;;;;;;13.63;5.83;;;4.20;99.90;;;;;;5059094;28;20196;-66
2022/01/17 03:18:51;;;;;;;14.97;7.43;;;4.20;99.90;;;;;;5064048;28;20272;-67
2022/01/17 03:21:19;;;;;;;12.57;6.30;;;4.10;99.90;;;;;;5065716;28;20191;-67
2022/01/17 03:23:48;;;;;;;11.33;6.30;;;4.30;99.90;;;;;;5063305;28;20228;-66
2022/01/17 03:26:15;;;;;;;10.87;6.30;;;4.30;99.90;;;;;;5064416;28;20262;-66
2022/01/17 03:28:42;;;;;;;16.53;6.83;;;4.30;99.90;;;;;;5070936;28;20193;-66
2022/01/17 03:31:09;;;;;;;12.07;6.50;;;4.30;99.90;;;;;;5063433;28;20202;-66
2022/01/17 03:33:36;;;;;;;12.43;6.27;;;4.20;99.90;;;;;;5075274;28;20227;-66
2022/01/17 03:36:04;;;;;;;12.83;6.63;;;4.20;99.90;;;;;;5069244;28;20206;-68
2022/01/17 03:38:33;;;;;;;10.20;5.57;;;4.30;99.90;;;;;;5066841;28;20192;-69
2022/01/17 03:41:01;;;;;;;10.17;5.60;;;4.30;99.90;;;;;;5063800;28;20191;-69
2022/01/17 03:43:28;;;;;;;9.60;5.17;;;4.20;99.90;;;;;;5071782;28;20232;-68
2022/01/17 03:45:57;;;;;;;10.93;5.63;;;4.20;99.90;;;;;;5069815;28;20203;-68
2022/01/17 03:48:26;;;;;;;9.20;5.37;;;4.20;99.90;;;;;;5074665;28;20193;-68
2022/01/17 03:50:55;;;;;;;10.70;5.60;;;4.20;99.90;;;;;;5066487;28;20198;-68
2022/01/17 03:53:23;;;;;;;11.23;5.63;;;4.20;99.90;;;;;;5064047;28;20227;-69
2022/01/17 03:55:50;;;;;;;12.10;5.90;;;4.20;99.90;;;;;;5066103;28;20602;-66
2022/01/17 03:58:17;;;;;;;11.73;5.93;;;4.10;99.90;;;;;;5069936;28;20247;-66
2022/01/17 04:00:47;;;;;;;10.57;5.67;;;4.10;99.90;;;;;;5070625;28;20273;-66
2022/01/17 04:03:14;;;;;;;10.63;5.80;;;4.10;99.90;;;;;;5057484;28;20206;-66
2022/01/17 04:05:41;;;;;;;9.97;5.30;;;4.10;99.90;;;;;;5075061;28;20197;-66
2022/01/17 04:08:09;;;;;;;10.40;5.63;;;4.00;99.90;;;;;;5058934;28;20199;-66
2022/01/17 04:10:36;;;;;;;11.03;5.73;;;4.10;99.90;;;;;;5072011;28;20205;-66
2022/01/17 04:13:04;;;;;;;13.10;5.83;;;4.00;99.90;;;;;;5075090;28;20289;-66
2022/01/17 04:15:32;;;;;;;12.37;5.67;;;4.00;99.90;;;;;;5061823;28;20613;-68
2022/01/17 04:18:00;;;;;;;9.63;5.37;;;4.10;99.90;;;;;;5060898;28;20203;-69
2022/01/17 04:20:28;;;;;;;8.73;4.73;;;4.10;99.90;;;;;;5061846;28;20195;-69
2022/01/17 04:23:02;;;;;;;9.60;5.27;;;4.10;99.90;;;;;;5063008;28;20573;-69
2022/01/17 04:25:30;;;;;;;9.43;5.30;;;4.20;99.90;;;;;;5067852;28;20195;-69
2022/01/17 04:27:59;;;;;;;9.17;4.73;;;4.30;99.90;;;;;;5062873;28;20204;-69
2022/01/17 04:30:26;;;;;;;9.07;4.70;;;4.40;99.90;;;;;;5060727;28;20216;-68
2022/01/17 04:32:54;;;;;;;9.47;5.23;;;4.50;99.90;;;;;;5077254;28;20199;-69
2022/01/17 04:35:22;;;;;;;9.23;5.00;;;4.50;99.90;;;;;;5066457;28;20837;-69
2022/01/17 04:37:52;;;;;;;7.67;4.47;;;4.50;99.90;;;;;;5059118;28;20206;-69
2022/01/17 04:40:19;;;;;;;9.93;5.00;;;4.60;99.90;;;;;;5057529;28;20204;-69
2022/01/17 04:42:48;;;;;;;9.10;4.80;;;4.70;99.90;;;;;;5072112;28;20209;-69
2022/01/17 04:45:18;;;;;;;8.50;4.70;;;4.70;99.90;;;;;;5064492;28;20683;-69
2022/01/17 04:47:51;;;;;;;8.07;4.20;;;4.70;99.90;;;;;;5069489;28;20202;-69
2022/01/17 04:50:21;;;;;;;8.00;4.93;;;4.80;99.90;;;;;;5065522;28;20201;-69
2022/01/17 04:52:49;;;;;;;7.57;4.47;;;4.80;99.90;;;;;;5063040;28;20196;-69
2022/01/17 04:55:17;;;;;;;8.57;4.23;;;4.80;99.90;;;;;;5062971;28;20214;-68
2022/01/17 04:57:45;;;;;;;7.60;4.00;;;4.80;99.90;;;;;;5071863;28;20193;-68
2022/01/17 05:00:15;;;;;;;7.23;4.23;;;4.90;99.90;;;;;;5063430;28;20252;-66
2022/01/17 05:02:42;;;;;;;8.37;4.13;;;4.90;99.90;;;;;;5057315;28;20264;-68
2022/01/17 05:05:10;;;;;;;7.60;4.40;;;4.80;99.90;;;;;;5066286;28;20322;-68
2022/01/17 05:07:38;;;;;;;8.13;4.30;;;4.90;99.90;;;;;;5061136;28;20678;-67
2022/01/17 05:10:13;;;;;;;8.43;4.70;;;4.90;99.90;;;;;;5065052;28;20233;-69
2022/01/17 05:12:41;;;;;;;7.10;4.27;;;4.90;99.90;;;;;;5064015;28;20239;-67
2022/01/17 05:15:19;;;;;;;6.67;3.80;;;4.80;99.90;;;;;;5062282;28;20235;-67
2022/01/17 05:17:59;;;;;;;6.67;4.00;;;4.80;99.90;;;;;;5057020;28;20197;-67
2022/01/17 05:20:26;;;;;;;6.63;4.00;;;4.80;99.90;;;;;;5057496;28;20274;-67
2022/01/17 05:22:53;;;;;;;7.53;4.27;;;4.80;99.90;;;;;;5058937;28;21321;-67
2022/01/17 05:25:20;;;;;;;7.40;4.13;;;4.80;99.90;;;;;;5065239;28;20203;-67
2022/01/17 05:27:47;;;;;;;6.73;4.00;;;4.90;99.90;;;;;;5064811;28;20210;-67
2022/01/17 05:30:18;;;;;;;9.03;4.73;;;4.90;99.90;;;;;;5063665;28;20204;-67
2022/01/17 05:32:45;;;;;;;7.10;4.33;;;4.90;99.90;;;;;;5066048;28;20200;-67
2022/01/17 05:35:13;;;;;;;8.37;4.27;;;4.90;99.90;;;;;;5066843;28;20217;-67
2022/01/17 05:37:41;;;;;;;7.27;4.20;;;5.00;99.90;;;;;;5067755;28;20190;-67
2022/01/17 05:40:10;;;;;;;7.03;4.43;;;5.10;99.90;;;;;;5058884;28;20196;-67
2022/01/17 05:42:37;;;;;;;6.77;3.90;;;5.00;99.90;;;;;;5057146;28;20200;-68
2022/01/17 05:45:06;;;;;;;7.17;4.20;;;5.10;99.90;;;;;;5056225;28;20213;-68
2022/01/17 05:47:32;;;;;;;8.50;4.30;;;5.10;99.90;;;;;;5060978;28;20583;-69
2022/01/17 05:50:03;;;;;;;6.80;4.27;;;5.10;99.90;;;;;;5064977;28;20202;-69
2022/01/17 05:52:30;;;;;;;8.33;4.40;;;5.00;99.90;;;;;;5054739;28;20203;-68
2022/01/17 05:54:58;;;;;;;9.47;4.67;;;5.10;99.90;;;;;;5057072;28;20229;-70
2022/01/17 05:57:25;;;;;;;7.57;4.63;;;5.10;99.90;;;;;;5062098;28;20217;-69
2022/01/17 05:59:52;;;;;;;7.83;4.30;;;5.10;99.90;;;;;;5065910;28;20651;-70
2022/01/17 06:02:19;;;;;;;7.17;4.27;;;5.10;99.90;;;;;;5056050;28;20187;-70
2022/01/17 06:04:47;;;;;;;7.30;4.17;;;5.10;99.90;;;;;;5062797;28;20226;-71
2022/01/17 06:07:13;;;;;;;7.40;4.30;;;5.10;99.90;;;;;;5059026;28;20198;-69
2022/01/17 06:09:40;;;;;;;10.10;4.73;;;5.10;99.90;;;;;;5063122;28;20681;-69
2022/01/17 06:12:07;;;;;;;7.17;4.13;;;4.90;99.90;;;;;;5064447;28;20206;-70
2022/01/17 06:14:34;;;;;;;8.23;4.00;;;4.90;99.90;;;;;;5066826;28;20224;-67
2022/01/17 06:17:01;;;;;;;7.57;4.27;;;4.90;99.90;;;;;;5065580;28;20202;-67
2022/01/17 06:19:27;;;;;;;9.73;4.83;;;5.00;99.90;;;;;;5064477;28;20334;-68
2022/01/17 06:21:54;;;;;;;6.13;4.10;;;5.10;99.90;;;;;;5065582;28;20197;-71
2022/01/17 06:24:23;;;;;;;7.37;4.30;;;5.10;99.90;;;;;;5058457;28;20217;-70
2022/01/17 06:26:51;;;;;;;8.40;4.73;;;5.00;99.90;;;;;;5063914;28;20228;-68
2022/01/17 06:29:18;;;;;;;6.90;4.17;;;5.00;99.90;;;;;;5062734;28;20194;-69
2022/01/17 06:31:45;;;;;;;9.13;4.30;;;5.10;99.90;;;;;;5060201;28;20198;-69
2022/01/17 06:34:12;;;;;;;6.37;4.27;;;5.00;99.90;;;;;;5063522;28;20214;-69
2022/01/17 06:36:41;;;;;;;7.33;4.23;;;5.00;99.90;;;;;;5060172;28;20220;-69
2022/01/17 06:39:09;;;;;;;8.93;4.60;;;5.10;99.90;;;;;;5061827;28;20197;-70
2022/01/17 06:41:37;;;;;;;7.97;4.53;;;5.10;99.90;;;;;;5053541;28;20197;-70
2022/01/17 06:44:05;;;;;;;8.27;4.73;;;5.10;99.90;;;;;;5060842;28;20699;-70
2022/01/17 06:46:32;;;;;;;8.60;5.07;;;5.10;99.90;;;;;;5061472;28;20199;-67
2022/01/17 06:48:59;;;;;;;7.77;4.53;;;5.20;99.90;;;;;;5058775;28;20264;-67
2022/01/17 06:51:26;;;;;;;6.63;4.33;;;5.20;99.90;;;;;;5060279;28;20206;-67
2022/01/17 06:53:53;;;;;;;8.53;4.57;;;5.20;99.90;;;;;;5051763;28;20229;-67
2022/01/17 06:56:20;;;;;;;8.07;4.27;;;5.20;99.90;;;;;;5055125;28;21666;-69
2022/01/17 06:58:47;;;;;;;7.13;4.23;;;5.20;99.90;;;;;;5060734;28;20678;-69
2022/01/17 07:01:14;;;;;;;8.90;4.57;;;5.10;99.90;;;;;;5058645;28;20623;-70
2022/01/17 07:03:42;;;;;;;8.60;5.00;;;5.10;99.90;;;;;;5054408;28;20226;-69
2022/01/17 07:06:08;;;;;;;8.30;4.53;;;5.10;99.90;;;;;;5055540;28;20584;-71
2022/01/17 07:08:35;;;;;;;7.87;4.47;;;5.20;99.90;;;;;;5044316;28;20202;-71
2022/01/17 07:11:02;;;;;;;7.17;4.17;;;5.20;99.90;;;;;;5057408;28;20567;-70
2022/01/17 07:13:29;;;;;;;7.77;4.73;;;5.20;99.90;;;;;;5055993;28;20210;-70
2022/01/17 07:15:56;;;;;;;8.53;4.40;;;5.30;99.90;;;;;;5056904;28;20226;-72
2022/01/17 07:18:22;;;;;;;8.07;4.70;;;5.30;99.90;;;;;;5055326;28;20239;-70
2022/01/17 07:20:49;;;;;;;7.43;4.37;;;5.30;99.90;;;;;;5053731;28;20200;-70
2022/01/17 07:23:16;;;;;;;7.23;4.33;;;5.30;99.90;;;;;;5055429;28;20494;-70
2022/01/17 07:25:44;;;;;;;7.03;4.57;;;5.30;99.90;;;;;;5052860;28;20190;-69
2022/01/17 07:28:13;;;;;;;6.83;4.40;;;5.30;99.90;;;;;;5056113;28;20202;-71
2022/01/17 07:30:40;;;;;;;8.77;4.50;;;5.20;99.90;;;;;;5069342;28;20204;-70
2022/01/17 07:33:07;;;;;;;9.40;5.10;;;5.10;99.90;;;;;;5055809;28;20330;-70
2022/01/17 07:35:35;;;;;;;10.07;4.97;;;5.20;99.90;;;;;;5054882;28;20230;-69
2022/01/17 07:38:01;;;;;;;7.20;4.70;;;5.10;99.90;;;;;;5054671;28;20190;-72
2022/01/17 07:40:29;;;;;;;7.77;4.53;;;5.20;99.90;;;;;;5055349;28;20195;-70
2022/01/17 07:42:59;;;;;;;8.30;4.97;;;5.20;99.90;;;;;;5050013;28;20312;-72
2022/01/17 07:45:27;;;;;;;8.60;5.03;;;5.20;99.90;;;;;;5055488;28;20194;-69
2022/01/17 07:50:23;;;;;;;10.60;4.67;;;5.20;99.90;;;;;;5055222;28;20213;-68
2022/01/17 07:52:51;;;;;;;7.37;4.37;;;5.20;99.90;;;;;;5056786;28;20206;-68
2022/01/17 07:55:21;;;;;;;7.80;4.27;;;5.20;99.90;;;;;;5055738;28;20332;-67
2022/01/17 07:57:48;;;;;;;7.70;4.93;;;5.30;99.90;;;;;;5053292;28;20390;-68
2022/01/17 08:00:20;;;;;;;8.27;4.40;;;5.40;99.90;;;;;;5050895;28;20195;-67
2022/01/17 08:02:47;;;;;;;7.73;4.60;;;5.60;99.90;;;;;;5053111;28;20190;-68
2022/01/17 08:05:35;;;;;;;7.03;4.37;;;5.60;99.90;;;;;;5054807;28;20804;-68
2022/01/17 08:08:02;;;;;;;7.30;4.57;;;5.70;99.90;;;;;;5052110;28;20213;-67
2022/01/17 08:10:30;;;;;;;7.70;4.53;;;5.80;99.90;;;;;;5052530;28;20291;-68
2022/01/17 08:12:56;;;;;;;7.67;4.60;;;5.90;99.90;;;;;;5056281;28;20672;-69
2022/01/17 08:15:24;;;;;;;7.80;4.83;;;6.00;99.90;;;;;;5059623;28;20223;-69
2022/01/17 08:17:51;;;;;;;10.83;4.80;;;6.10;99.90;;;;;;5057391;28;20316;-69
2022/01/17 08:20:19;;;;;;;8.40;4.93;;;6.20;99.90;;;;;;5059065;28;20201;-69
2022/01/17 08:22:46;;;;;;;6.00;4.43;;;6.30;99.90;;;;;;5052989;28;20668;-69
2022/01/17 08:25:14;;;;;;;9.00;5.33;;;6.30;99.90;;;;;;5055696;28;20247;-70
2022/01/17 08:27:40;;;;;;;9.97;5.07;;;6.50;99.90;;;;;;5056526;28;20199;-69
2022/01/17 08:30:08;;;;;;;7.40;4.50;;;6.70;99.90;;;;;;5057739;28;20207;-69
2022/01/17 08:32:55;;;;;;;9.53;4.80;;;6.60;99.90;;;;;;5058677;28;20256;-69
2022/01/17 08:35:22;;;;;;;7.33;4.80;;;6.80;99.90;;;;;;5057862;28;20219;-68
2022/01/17 08:37:49;;;;;;;8.83;4.50;;;6.90;99.90;;;;;;5056249;28;20684;-68
2022/01/17 08:40:18;;;;;;;8.97;5.00;;;7.00;99.90;;;;;;5057736;28;20558;-67
2022/01/17 08:42:49;;;;;;;8.37;4.63;;;7.00;99.90;;;;;;5053946;28;20209;-66
2022/01/17 08:45:18;;;;;;;7.50;4.80;;;7.20;99.90;;;;;;5057906;28;20227;-66
2022/01/17 08:48:05;;;;;;;7.47;4.37;;;7.20;99.90;;;;;;5056066;28;20210;-66
2022/01/17 08:50:32;;;;;;;10.60;4.13;;;7.10;99.90;;;;;;5057640;28;20207;-66
2022/01/17 08:53:00;;;;;;;7.93;4.37;;;7.10;99.90;;;;;;5057906;28;20208;-66
2022/01/17 08:55:27;;;;;;;8.43;4.80;;;7.20;99.90;;;;;;5056729;28;20234;-66
2022/01/17 08:57:53;;;;;;;7.90;4.57;;;7.10;99.90;;;;;;5061047;28;20222;-66
2022/01/17 09:00:21;;;;;;;10.37;4.43;;;7.20;99.90;;;;;;5059420;28;20200;-67
2022/01/17 09:03:08;;;;;;;8.13;4.60;;;7.20;99.90;;;;;;5054680;28;20199;-65
2022/01/17 09:05:38;;;;;;;8.87;4.20;;;7.10;99.90;;;;;;5053525;28;20227;-65
2022/01/17 09:08:05;;;;;;;7.97;4.80;;;7.10;99.90;;;;;;5055323;28;20211;-65
2022/01/17 09:10:32;;;;;;;10.00;5.03;;;7.00;99.90;;;;;;5052692;28;20205;-65
2022/01/17 09:12:59;;;;;;;9.37;4.90;;;7.00;99.90;;;;;;5050009;28;20657;-65
2022/01/17 09:15:29;;;;;;;10.30;5.00;;;7.00;99.90;;;;;;5057565;28;20219;-65
2022/01/17 09:17:57;;;;;;;8.63;4.73;;;6.90;99.90;;;;;;5054923;28;20244;-67
2022/01/17 09:20:24;;;;;;;11.87;5.00;;;6.90;99.90;;;;;;5055894;28;21206;-68
2022/01/17 09:22:51;;;;;;;9.20;4.90;;;6.90;99.90;;;;;;5050674;28;20199;-65
2022/01/17 09:25:17;;;;;;;9.47;4.93;;;7.00;99.90;;;;;;5052545;28;20316;-66
2022/01/17 09:27:44;;;;;;;10.73;4.70;;;7.00;99.90;;;;;;5054907;28;20286;-66
2022/01/17 09:30:14;;;;;;;6.60;3.70;;;7.10;99.90;;;;;;5055593;28;20229;-67
2022/01/17 09:32:41;;;;;;;7.20;3.90;;;7.00;99.90;;;;;;5057536;28;20687;-68
2022/01/17 09:35:11;;;;;;;9.17;4.50;;;7.10;99.90;;;;;;5059383;28;20233;-67
2022/01/17 09:37:39;;;;;;;12.40;4.67;;;7.20;99.90;;;;;;5059266;28;20227;-67
2022/01/17 09:40:08;;;;;;;8.53;4.17;;;7.30;99.90;;;;;;5056495;28;20210;-68
2022/01/17 09:42:37;;;;;;;8.23;4.13;;;7.30;99.90;;;;;;5055781;28;20586;-69
2022/01/17 09:45:07;;;;;;;9.20;4.07;;;7.30;99.90;;;;;;5054730;28;20223;-68
2022/01/17 09:47:36;;;;;;;7.60;4.30;;;7.30;99.90;;;;;;5054428;28;20197;-67
2022/01/17 09:50:08;;;;;;;9.20;4.40;;;7.30;99.90;;;;;;5057346;28;20615;-67
2022/01/17 09:52:38;;;;;;;9.20;4.17;;;7.50;99.90;;;;;;5058810;28;20210;-69
2022/01/17 09:55:13;;;;;;;8.27;4.00;;;7.50;99.90;;;;;;5059255;28;20228;-69
2022/01/17 09:57:44;;;;;;;9.10;4.27;;;7.60;99.90;;;;;;5057434;28;20215;-69
2022/01/17 10:00:14;;;;;;;6.87;4.30;;;7.60;99.90;;;;;;5072130;28;20687;-69
2022/01/17 10:02:41;;;;;;;7.97;4.17;;;7.70;99.90;;;;;;5055331;28;20253;-69
2022/01/17 10:05:13;;;;;;;7.53;4.17;;;7.70;99.90;;;;;;5053141;28;20225;-69
2022/01/17 10:08:04;;;;;;;9.90;4.13;;;7.60;99.90;;;;;;5055980;28;20227;-67
2022/01/17 10:10:45;;;;;;;8.33;4.97;;;7.60;99.90;;;;;;5049464;28;20192;-67
2022/01/17 10:13:20;;;;;;;7.93;4.50;;;7.70;99.90;;;;;;5051293;28;20207;-67
2022/01/17 10:16:19;;;;;;;7.17;4.00;;;7.80;99.90;;;;;;5052785;28;20217;-67
2022/01/17 10:19:01;;;;;;;7.07;4.03;;;7.90;99.90;;;;;;5053856;28;20206;-66
2022/01/17 10:21:44;;;;;;;10.03;4.23;;;8.10;99.90;;;;;;5053349;28;20193;-67
2022/01/17 10:35:16;;;;;;;7.00;4.30;;;8.00;99.90;;;;;;5058919;28;20225;-67
2022/01/17 10:37:57;;;;;;;8.47;5.00;;;8.10;99.90;;;;;;5055578;28;20208;-66
2022/01/17 10:40:24;;;;;;;9.03;4.63;;;8.00;99.90;;;;;;5053320;28;20212;-67
2022/01/17 10:42:52;;;;;;;7.47;3.80;;;7.90;99.90;;;;;;5052555;28;20216;-67
2022/01/17 10:45:22;;;;;;;9.27;4.67;;;7.90;99.90;;;;;;5054833;28;20221;-67
2022/01/17 10:47:52;;;;;;;6.37;4.33;;;7.90;99.90;;;;;;5053322;28;20214;-67
2022/01/17 10:50:27;;;;;;;7.03;4.30;;;8.00;99.90;;;;;;5045684;28;20204;-67
2022/01/17 10:52:57;;;;;;;7.93;4.10;;;8.00;99.90;;;;;;5051897;28;20691;-67
2022/01/17 10:55:26;;;;;;;9.30;4.50;;;8.00;99.90;;;;;;5050571;28;20433;-67
2022/01/17 10:57:56;;;;;;;8.50;4.37;;;8.00;99.90;;;;;;5056502;28;20221;-67
2022/01/17 11:00:25;;;;;;;9.00;4.23;;;8.00;99.90;;;;;;5054146;28;20215;-67
2022/01/17 11:02:54;;;;;;;7.10;4.27;;;8.10;99.90;;;;;;5056833;28;20248;-67
2022/01/17 11:05:22;;;;;;;9.93;4.40;;;8.00;99.90;;;;;;5055089;28;21428;-67
2022/01/17 11:07:56;;;;;;;7.20;4.30;;;8.00;99.90;;;;;;5055060;28;20239;-67
2022/01/17 11:10:32;;;;;;;8.30;3.90;;;8.00;99.90;;;;;;5056441;28;20201;-67
2022/01/17 11:13:02;;;;;;;6.00;3.80;;;8.10;99.90;;;;;;5053776;28;20686;-67
2022/01/17 11:15:32;;;;;;;7.33;4.07;;;8.20;99.90;;;;;;5050536;28;20225;-67
2022/01/17 11:18:05;;;;;;;7.57;3.97;;;8.00;99.90;;;;;;5051833;28;20205;-67
2022/01/17 11:20:33;;;;;;;8.07;4.07;;;8.20;99.90;;;;;;5051429;28;21050;-67
2022/01/17 11:23:02;;;;;;;6.47;3.90;;;8.10;99.90;;;;;;5046532;28;20196;-67
2022/01/17 11:25:34;;;;;;;6.73;4.07;;;8.10;99.90;;;;;;5056383;28;20214;-67
2022/01/17 11:28:05;;;;;;;7.70;3.93;;;8.20;99.90;;;;;;5054194;28;20202;-67
2022/01/17 11:30:36;;;;;;;8.63;4.47;;;8.20;99.90;;;;;;5057812;28;20205;-67
2022/01/17 11:33:07;;;;;;;9.57;4.50;;;8.20;99.90;;;;;;5052922;28;20293;-68
2022/01/17 11:35:38;;;;;;;19.20;4.50;;;8.30;99.90;;;;;;5060273;28;20220;-67
2022/01/17 11:38:05;;;;;;;8.20;4.30;;;8.30;99.90;;;;;;5061278;28;20622;-68
2022/01/17 11:40:33;;;;;;;6.27;3.67;;;8.40;99.90;;;;;;5059860;28;20818;-67
2022/01/17 11:43:17;;;;;;;5.20;3.80;;;8.40;99.90;;;;;;5057221;28;20230;-68
2022/01/17 11:45:45;;;;;;;7.50;3.50;;;8.40;99.90;;;;;;5060463;28;20767;-68
2022/01/17 11:48:19;;;;;;;6.40;3.73;;;8.50;99.90;;;;;;5063046;28;20194;-68
2022/01/17 11:50:48;;;;;;;7.97;3.80;;;8.50;99.90;;;;;;5060172;28;20214;-67
2022/01/17 11:53:15;;;;;;;8.10;3.57;;;8.60;99.90;;;;;;5059865;28;20233;-67
2022/01/17 11:55:42;;;;;;;5.43;3.43;;;8.60;99.90;;;;;;5059529;28;20222;-68
2022/01/17 11:58:27;;;;;;;6.17;3.73;;;8.70;99.90;;;;;;5060058;28;20217;-68
2022/01/17 12:00:56;;;;;;;7.13;4.10;;;8.70;99.90;;;;;;5078567;28;20209;-68
2022/01/17 12:03:27;;;;;;;6.50;3.90;;;8.80;99.90;;;;;;5061023;28;20305;-68
2022/01/17 12:05:56;;;;;;;7.27;4.03;;;9.00;99.90;;;;;;5062516;28;20283;-68
2022/01/17 12:08:25;;;;;;;7.90;3.97;;;8.90;99.90;;;;;;5064113;28;20198;-67
2022/01/17 12:10:59;;;;;;;7.00;3.93;;;8.80;99.90;;;;;;5062519;28;20209;-68
2022/01/17 12:13:40;;;;;;;7.50;3.83;;;8.70;99.90;;;;;;5064840;28;20232;-68
2022/01/17 12:16:21;;;;;;;8.37;3.57;;;8.60;99.90;;;;;;5061632;28;20492;-68
2022/01/17 12:18:56;;;;;;;5.73;3.70;;;8.50;99.90;;;;;;5063792;28;20211;-67
2022/01/17 12:21:35;;;;;;;7.07;4.07;;;8.40;99.90;;;;;;5064276;28;20677;-67
2022/01/17 12:24:17;;;;;;;9.53;4.60;;;8.50;99.90;;;;;;5062619;28;20217;-68
2022/01/17 12:26:57;;;;;;;5.90;3.80;;;8.50;99.90;;;;;;5064795;28;20204;-67
2022/01/17 12:29:55;;;;;;;7.20;3.90;;;8.40;99.90;;;;;;5064500;28;20208;-67
2022/01/17 12:32:25;;;;;;;5.93;3.60;;;8.40;99.90;;;;;;5065416;28;21345;-67
2022/01/17 12:35:16;;;;;;;6.60;3.90;;;8.40;99.90;;;;;;5063660;28;20224;-67
2022/01/17 12:37:48;;;;;;;5.27;3.40;;;8.40;99.90;;;;;;5064599;28;20205;-68
2022/01/17 12:40:33;;;;;;;6.27;3.83;;;8.40;99.90;;;;;;5061345;28;20838;-68
2022/01/17 12:43:06;;;;;;;6.83;3.67;;;8.40;99.90;;;;;;5062378;28;20202;-68
2022/01/17 12:45:37;;;;;;;8.37;4.23;;;8.50;99.90;;;;;;5059224;28;20214;-68
2022/01/17 12:48:11;;;;;;;7.53;4.20;;;8.40;99.90;;;;;;5060569;28;20215;-67
2022/01/17 12:50:39;;;;;;;7.40;4.30;;;8.50;99.90;;;;;;5060027;28;20202;-68
2022/01/17 12:53:09;;;;;;;6.27;4.13;;;8.60;99.90;;;;;;5057439;28;20202;-68
2022/01/17 12:55:45;;;;;;;7.30;3.90;;;8.50;99.90;;;;;;5058467;28;20273;-68
2022/01/17 12:58:21;;;;;;;8.73;4.60;;;8.60;99.90;;;;;;5062107;28;20213;-68
2022/01/17 13:00:54;;;;;;;6.87;4.30;;;8.70;99.90;;;;;;5058735;28;20197;-67
2022/01/17 13:03:25;;;;;;;7.93;4.53;;;8.60;99.90;;;;;;5061733;28;20230;-67
2022/01/17 13:05:56;;;;;;;9.80;4.80;;;8.60;99.90;;;;;;5060295;28;20209;-67
2022/01/17 13:08:23;;;;;;;8.80;4.93;;;8.60;99.90;;;;;;5063949;28;20210;-69
2022/01/17 13:10:54;;;;;;;7.00;4.07;;;8.50;99.90;;;;;;5059573;28;20678;-69
2022/01/17 13:13:22;;;;;;;7.23;4.13;;;8.50;99.90;;;;;;5064220;28;20233;-69
2022/01/17 13:15:53;;;;;;;7.40;4.40;;;8.40;99.90;;;;;;5061263;28;20222;-69
2022/01/17 13:18:20;;;;;;;8.00;4.87;;;8.40;99.90;;;;;;5062129;28;20233;-69
2022/01/17 13:20:47;;;;;;;7.47;4.63;;;8.30;99.90;;;;;;5059183;28;20208;-69
2022/01/17 13:23:18;;;;;;;6.50;3.93;;;8.30;99.90;;;;;;5058185;28;20206;-69
2022/01/17 13:25:44;;;;;;;8.13;4.80;;;8.30;99.90;;;;;;5057984;28;20679;-69
2022/01/17 13:28:11;;;;;;;7.90;4.70;;;8.20;99.90;;;;;;5061576;28;20195;-69
2022/01/17 13:30:38;;;;;;;8.20;4.60;;;8.10;99.90;;;;;;5061276;28;20204;-69
2022/01/17 13:33:18;;;;;;;10.63;5.03;;;8.00;99.90;;;;;;5063789;28;20223;-69
2022/01/17 13:35:46;;;;;;;7.43;4.53;;;8.00;99.90;;;;;;5059797;28;20682;-68